Time;durP1;ratioP1;P1;durP2;ratioP2;P2;SDS_P1;SDS_P2;PMS_P1;PMS_P2;Temp;Humidity;BMP_temperature;BMP_pressure;BME280_temperature;BME280_humidity;BME280_pressure;Samples;Min_cycle;Max_cycle;Signal;HPM_P1;HPM_P2
2022/05/24 00:01:29;;;;;;;22.90;11.68;;;;;;;13.69;100.00;100014.88;5097048;28;20437;-69
2022/05/24 00:03:56;;;;;;;18.73;10.25;;;;;;;13.67;100.00;100008.72;5093080;28;20479;-69
2022/05/24 00:06:25;;;;;;;18.20;10.43;;;;;;;13.66;100.00;99999.94;5094868;28;20468;-68
2022/05/24 00:08:51;;;;;;;18.17;10.30;;;;;;;13.65;100.00;100003.44;5099529;28;20020;-69
2022/05/24 00:11:16;;;;;;;13.63;8.55;;;;;;;13.62;100.00;99992.06;5114374;28;20042;-69
2022/05/24 00:13:42;;;;;;;19.05;9.52;;;;;;;13.69;100.00;99993.75;5099596;28;20035;-69
2022/05/24 00:16:07;;;;;;;12.88;8.73;;;;;;;13.70;100.00;99994.59;5112074;28;20023;-68
2022/05/24 00:18:32;;;;;;;19.58;8.90;;;;;;;13.65;100.00;99986.72;5093290;28;20024;-69
2022/05/24 00:21:00;;;;;;;15.98;8.38;;;;;;;13.61;100.00;100001.72;5100455;28;20494;-69
2022/05/24 00:23:28;;;;;;;17.15;8.40;;;;;;;13.60;100.00;100002.63;5092858;28;20024;-69
2022/05/24 00:25:56;;;;;;;17.30;7.97;;;;;;;13.52;100.00;99990.38;5114010;28;20035;-68
2022/05/24 00:28:24;;;;;;;20.02;7.25;;;;;;;13.53;100.00;99993.00;5098176;28;20033;-68
2022/05/24 00:30:50;;;;;;;18.23;8.40;;;;;;;13.57;100.00;100002.66;5093076;28;20036;-68
2022/05/24 00:33:17;;;;;;;19.13;6.38;;;;;;;13.59;100.00;99998.25;5093980;28;20158;-67
2022/05/24 00:35:44;;;;;;;13.77;5.25;;;;;;;13.64;100.00;99990.25;5092059;28;20085;-69
2022/05/24 00:38:29;;;;;;;19.35;5.63;;;;;;;13.62;100.00;100003.50;5091239;28;20023;-69
2022/05/24 00:41:22;;;;;;;20.58;6.22;;;;;;;13.61;100.00;99993.81;5094233;28;20030;-69
2022/05/24 00:44:06;;;;;;;23.15;6.15;;;;;;;13.55;100.00;99982.41;5094401;28;20097;-68
2022/05/24 00:46:56;;;;;;;17.45;5.97;;;;;;;13.53;100.00;99965.72;5091714;28;20028;-69
2022/05/24 00:49:32;;;;;;;18.42;5.57;;;;;;;13.51;100.00;99962.19;5089023;28;20078;-68
2022/05/24 00:52:07;;;;;;;20.25;5.38;;;;;;;13.51;100.00;99964.84;5094024;28;20498;-68
2022/05/24 00:54:33;;;;;;;19.88;7.78;;;;;;;13.45;100.00;99956.06;5092436;28;20081;-68
2022/05/24 00:57:02;;;;;;;24.58;7.30;;;;;;;13.44;100.00;99956.97;5092777;28;20103;-69
2022/05/24 00:59:37;;;;;;;21.00;7.72;;;;;;;13.52;100.00;99970.09;5090737;28;20522;-69
2022/05/24 01:02:04;;;;;;;27.40;9.23;;;;;;;13.43;100.00;99992.22;5089889;28;20028;-69
2022/05/24 01:04:30;;;;;;;24.73;8.68;;;;;;;13.43;100.00;99997.50;5092232;28;20031;-70
2022/05/24 01:06:55;;;;;;;28.63;9.02;;;;;;;13.41;100.00;100003.69;5092153;28;20502;-69
2022/05/24 01:09:29;;;;;;;25.38;10.38;;;;;;;13.41;100.00;100006.34;5092556;28;20480;-69
2022/05/24 01:12:01;;;;;;;24.50;10.35;;;;;;;13.46;100.00;99993.97;5092693;28;20048;-69
2022/05/24 01:14:27;;;;;;;23.98;10.68;;;;;;;13.50;100.00;99995.69;5095933;28;20042;-69
2022/05/24 01:16:55;;;;;;;18.73;10.13;;;;;;;13.45;100.00;99994.84;5091587;28;20032;-70
2022/05/24 01:19:36;;;;;;;22.65;9.90;;;;;;;13.43;100.00;100002.78;5090687;28;20101;-68
2022/05/24 01:22:19;;;;;;;20.73;10.43;;;;;;;13.30;100.00;99998.47;5092781;28;20360;-69
2022/05/24 01:24:51;;;;;;;29.40;9.98;;;;;;;13.25;100.00;99994.97;5090088;28;20391;-69
2022/05/24 01:27:17;;;;;;;26.75;9.90;;;;;;;13.25;100.00;99982.66;5094243;28;20024;-69
2022/05/24 01:29:42;;;;;;;25.67;9.77;;;;;;;13.28;100.00;99990.56;5092460;28;20028;-69
2022/05/24 01:37:35;;;;;;;18.30;9.13;;;;;;;13.18;100.00;99988.84;5092411;28;20367;-69
2022/05/24 01:40:04;;;;;;;22.05;9.25;;;;;;;13.25;100.00;99994.97;5091827;28;20266;-69
2022/05/24 01:42:30;;;;;;;18.55;9.35;;;;;;;13.24;100.00;99994.09;5090661;28;20490;-69
2022/05/24 01:45:12;;;;;;;24.20;9.73;;;;;;;13.16;100.00;99994.16;5091702;28;20413;-69
2022/05/24 01:47:39;;;;;;;26.15;10.40;;;;;;;13.18;100.00;99990.63;5093015;28;20052;-69
2022/05/24 01:50:10;;;;;;;22.85;10.07;;;;;;;13.19;100.00;99980.06;5092515;28;20024;-69
2022/05/24 01:52:58;;;;;;;20.45;10.00;;;;;;;13.12;100.00;99979.22;5087244;28;20031;-68
2022/05/24 01:55:31;;;;;;;28.65;10.85;;;;;;;13.08;100.00;99980.13;5090501;28;20082;-68
2022/05/24 01:58:01;;;;;;;27.13;10.73;;;;;;;13.13;100.00;99972.16;5089648;28;20069;-67
2022/05/24 02:00:27;;;;;;;20.80;10.35;;;;;;;13.10;100.00;99973.09;5091451;28;20082;-69
2022/05/24 02:02:53;;;;;;;16.35;9.20;;;;;;;13.14;100.00;99969.53;5091514;28;20499;-69
2022/05/24 02:05:34;;;;;;;23.40;11.40;;;;;;;13.08;100.00;99974.00;5094057;28;20042;-68
2022/05/24 02:07:59;;;;;;;23.35;10.20;;;;;;;13.02;100.00;99980.16;5090317;28;20023;-69
2022/05/24 02:10:26;;;;;;;20.70;10.98;;;;;;;13.07;100.00;99978.38;5092077;28;20047;-69
2022/05/24 02:12:56;;;;;;;27.60;11.00;;;;;;;13.01;100.00;99969.63;5089654;28;20031;-68
2022/05/24 02:15:26;;;;;;;24.02;11.23;;;;;;;13.03;100.00;99981.94;5092176;28;20032;-69
2022/05/24 02:18:04;;;;;;;29.45;11.40;;;;;;;13.07;100.00;99970.44;5094349;28;20024;-68
2022/05/24 02:20:32;;;;;;;25.77;11.60;;;;;;;13.05;100.00;99974.88;5094829;28;20020;-69
2022/05/24 02:22:58;;;;;;;23.40;11.20;;;;;;;13.02;100.00;99969.59;5091038;28;20027;-68
2022/05/24 02:25:32;;;;;;;30.52;12.32;;;;;;;13.09;100.00;99976.63;5094920;28;20163;-68
2022/05/24 02:27:57;;;;;;;22.63;11.60;;;;;;;13.06;100.00;99976.66;5109293;28;20024;-69
2022/05/24 02:30:27;;;;;;;29.00;13.45;;;;;;;13.09;100.00;99976.63;5095067;28;20070;-69
2022/05/24 02:32:52;;;;;;;29.55;12.80;;;;;;;13.04;100.00;99967.84;5096966;28;20374;-69
2022/05/24 02:35:18;;;;;;;24.33;12.38;;;;;;;13.10;100.00;99966.91;5094279;28;20110;-69
2022/05/24 02:37:44;;;;;;;24.35;13.40;;;;;;;13.13;100.00;99962.50;5093579;28;20035;-69
2022/05/24 02:42:54;;;;;;;25.60;13.77;;;;;;;13.09;100.00;99958.13;5094673;28;20489;-69
2022/05/24 02:45:20;;;;;;;23.90;12.30;;;;;;;13.15;100.00;99959.84;5093563;28;20107;-70
2022/05/24 02:47:45;;;;;;;26.98;12.55;;;;;;;13.09;100.00;99968.69;5092495;28;20458;-69
2022/05/24 02:50:11;;;;;;;27.10;13.02;;;;;;;13.12;100.00;99971.31;5098563;28;20067;-69
2022/05/24 02:52:40;;;;;;;26.27;13.07;;;;;;;13.11;100.00;99971.31;5094481;28;20404;-67
2022/05/24 02:55:08;;;;;;;32.40;13.35;;;;;;;13.08;100.00;99972.22;5096120;28;20552;-68
2022/05/24 02:57:34;;;;;;;25.27;11.23;;;;;;;13.14;100.00;99974.81;5093708;28;20093;-68
2022/05/24 02:59:59;;;;;;;20.17;10.55;;;;;;;13.12;100.00;99981.88;5094992;28;20049;-68
2022/05/24 03:02:25;;;;;;;26.13;11.50;;;;;;;13.09;100.00;99973.97;5094975;28;20023;-70
2022/05/24 03:04:50;;;;;;;32.17;10.48;;;;;;;13.06;100.00;99981.94;5104598;28;20053;-68
2022/05/24 03:10:00;;;;;;;26.10;9.50;;;;;;;13.04;100.00;99981.06;5087519;28;20050;-69
2022/05/24 03:15:09;;;;;;;;;;;;;;;13.03;100.00;99981.94;5102509;28;20043;-68
2022/05/24 03:17:34;;;;;;;23.17;6.97;;;;;;;13.03;100.00;99978.44;5094756;28;19912;-68
2022/05/24 03:19:59;;;;;;;16.00;6.47;;;;;;;13.06;100.00;99989.84;5094754;28;20020;-69
2022/05/24 03:22:25;;;;;;;14.60;5.93;;;;;;;13.07;100.00;99988.06;5092008;28;20032;-69
2022/05/24 03:24:50;;;;;;;21.58;5.35;;;;;;;13.10;100.00;99993.31;5096836;28;20394;-69
2022/05/24 03:27:16;;;;;;;21.42;6.00;;;;;;;13.06;100.00;99991.59;5114810;28;20483;-69
2022/05/24 03:29:42;;;;;;;21.08;5.00;;;;;;;13.05;100.00;100009.22;5096823;28;20039;-68
2022/05/24 03:32:09;;;;;;;12.68;4.20;;;;;;;13.05;100.00;100001.31;5095966;28;20099;-68
2022/05/24 03:34:35;;;;;;;18.40;3.72;;;;;;;13.02;100.00;100009.22;5094510;28;20032;-68
2022/05/24 03:37:01;;;;;;;21.33;4.07;;;;;;;13.00;100.00;100013.66;5093470;28;20028;-68
2022/05/24 03:39:26;;;;;;;11.63;2.72;;;;;;;13.01;100.00;100015.41;5092120;28;20032;-68
2022/05/24 03:41:51;;;;;;;17.17;3.53;;;;;;;12.97;100.00;100008.41;5095208;28;20107;-69
2022/05/24 03:44:17;;;;;;;15.73;3.47;;;;;;;12.97;100.00;100013.69;5094263;28;20482;-68
2022/05/24 03:46:42;;;;;;;16.88;3.55;;;;;;;12.93;100.00;100018.09;5093872;28;20131;-68
2022/05/24 03:49:08;;;;;;;14.68;3.00;;;;;;;12.91;100.00;100022.50;5094715;28;20024;-68
2022/05/24 03:51:33;;;;;;;18.85;3.25;;;;;;;12.85;100.00;100021.69;5106693;28;20024;-69
2022/05/24 03:53:59;;;;;;;12.43;3.08;;;;;;;12.84;100.00;100025.19;5093719;28;20589;-68
2022/05/24 03:56:24;;;;;;;19.98;3.40;;;;;;;12.86;100.00;100036.63;5080187;28;20543;-69
2022/05/24 03:58:50;;;;;;;22.80;3.45;;;;;;;12.76;100.00;100047.22;5093550;28;20032;-67
2022/05/24 04:01:15;;;;;;;14.57;2.55;;;;;;;12.75;100.00;100047.25;5092692;28;20395;-68
2022/05/24 04:03:41;;;;;;;22.83;3.47;;;;;;;12.82;100.00;100051.63;5091753;28;20028;-69
2022/05/24 04:06:06;;;;;;;17.02;2.60;;;;;;;12.81;100.00;100061.28;5094025;28;20024;-68
2022/05/24 04:08:32;;;;;;;13.93;3.00;;;;;;;12.78;100.00;100055.16;5102354;28;20118;-68
2022/05/24 04:10:59;;;;;;;17.42;3.25;;;;;;;12.85;100.00;100064.78;5093142;28;20024;-69
2022/05/24 04:13:24;;;;;;;19.63;3.13;;;;;;;12.85;100.00;100062.16;5092822;28;20024;-70
2022/05/24 04:15:49;;;;;;;19.75;3.25;;;;;;;12.87;100.00;100052.44;5092780;28;20532;-68
2022/05/24 04:18:15;;;;;;;17.20;2.55;;;;;;;12.87;100.00;100046.31;5105182;28;20115;-68
2022/05/24 04:20:40;;;;;;;11.75;2.78;;;;;;;12.90;100.00;100046.28;5113208;28;20383;-68
2022/05/24 04:23:12;;;;;;;10.32;2.70;;;;;;;12.90;100.00;100043.63;5096716;28;20028;-68
2022/05/24 04:25:37;;;;;;;8.43;1.70;;;;;;;12.93;100.00;100046.28;5093711;28;20034;-69
2022/05/24 04:28:03;;;;;;;16.30;2.40;;;;;;;12.89;100.00;100052.47;5090261;28;20110;-69
2022/05/24 04:30:29;;;;;;;12.70;3.50;;;;;;;12.81;100.00;100050.72;5089880;28;20400;-68
2022/05/24 04:32:54;;;;;;;8.52;1.83;;;;;;;12.85;100.00;100050.72;5106859;28;20027;-68
2022/05/24 04:35:19;;;;;;;15.63;2.30;;;;;;;12.87;100.00;100048.94;5097789;28;20020;-68
2022/05/24 04:37:45;;;;;;;12.52;2.60;;;;;;;12.81;100.00;100049.84;5090536;28;20031;-68
2022/05/24 04:40:11;;;;;;;9.18;2.63;;;;;;;12.85;100.00;100054.22;5092661;28;20028;-69
2022/05/24 04:42:36;;;;;;;15.05;2.13;;;;;;;12.86;100.00;100058.63;5092093;28;20028;-69
2022/05/24 04:45:07;;;;;;;10.35;1.67;;;;;;;12.85;100.00;100061.28;5103281;28;20481;-69
2022/05/24 04:47:34;;;;;;;14.73;2.00;;;;;;;12.95;100.00;100057.69;5089111;28;20484;-69
2022/05/24 04:50:02;;;;;;;13.05;1.90;;;;;;;12.91;100.00;100050.69;5104100;28;20466;-69
2022/05/24 04:52:31;;;;;;;16.98;2.55;;;;;;;12.85;100.00;100050.72;5103452;28;20019;-68
2022/05/24 04:54:57;;;;;;;14.65;2.38;;;;;;;12.84;100.00;100046.31;5096383;28;20115;-68
2022/05/24 04:57:22;;;;;;;13.90;4.07;;;;;;;12.86;100.00;100047.19;5100517;28;20380;-69
2022/05/24 04:59:49;;;;;;;14.38;4.93;;;;;;;12.90;100.00;100062.13;5104381;28;20031;-69
2022/05/24 05:02:14;;;;;;;15.25;5.00;;;;;;;12.82;100.00;100059.53;5100671;28;20024;-69
2022/05/24 05:04:39;;;;;;;12.60;5.75;;;;;;;12.81;100.00;100069.19;5092714;28;20027;-69
2022/05/24 05:07:06;;;;;;;13.95;5.80;;;;;;;12.75;100.00;100066.63;5092003;28;20035;-69
2022/05/24 05:09:35;;;;;;;14.50;5.55;;;;;;;12.68;100.00;100069.28;5093011;28;20483;-69
2022/05/24 05:12:09;;;;;;;15.18;5.78;;;;;;;12.65;100.00;100075.44;5102008;28;20031;-69
2022/05/24 05:14:36;;;;;;;15.50;6.25;;;;;;;12.56;100.00;100080.75;5084919;28;20087;-69
2022/05/24 05:17:02;;;;;;;16.27;5.88;;;;;;;12.51;100.00;100087.81;5090926;28;20024;-69
2022/05/24 05:19:28;;;;;;;14.23;5.28;;;;;;;12.48;100.00;100094.88;5090573;28;20032;-69
2022/05/24 05:21:54;;;;;;;15.50;5.57;;;;;;;12.52;100.00;100095.75;5095984;28;20016;-69
2022/05/24 05:24:19;;;;;;;17.90;4.47;;;;;;;12.45;100.00;100099.28;5089826;28;20020;-67
2022/05/24 05:26:45;;;;;;;20.98;5.15;;;;;;;12.46;100.00;100104.53;5092027;28;20118;-69
2022/05/24 05:29:10;;;;;;;12.23;4.60;;;;;;;12.43;100.00;100091.38;5103442;28;20024;-69
2022/05/24 05:31:35;;;;;;;15.38;4.38;;;;;;;12.44;100.00;100098.41;5093927;28;20033;-69
2022/05/24 05:34:01;;;;;;;10.60;4.55;;;;;;;12.48;100.00;100094.88;5087023;28;20028;-70
2022/05/24 05:36:28;;;;;;;19.60;4.63;;;;;;;12.47;100.00;100103.66;5088626;28;20033;-69
2022/05/24 05:38:54;;;;;;;24.92;5.82;;;;;;;12.38;100.00;100113.38;5094335;28;20098;-70
2022/05/24 05:41:23;;;;;;;25.52;5.55;;;;;;;12.29;100.00;100120.44;5092665;28;20016;-69
2022/05/24 05:43:48;;;;;;;10.38;5.30;;;;;;;12.31;100.00;100129.19;5078423;28;20457;-69
2022/05/24 05:46:15;;;;;;;24.63;5.85;;;;;;;12.32;100.00;100130.09;5084675;28;20059;-69
2022/05/24 05:48:41;;;;;;;18.73;6.32;;;;;;;12.25;100.00;100125.69;5083553;28;20149;-70
2022/05/24 05:51:08;;;;;;;11.27;6.47;;;;;;;12.33;100.00;100139.78;5084440;28;20432;-70
2022/05/24 05:53:34;;;;;;;16.30;6.93;;;;;;;12.49;100.00;100145.88;5089796;28;20472;-69
2022/05/24 05:56:00;;;;;;;11.82;6.22;;;;;;;12.69;100.00;100142.31;5085230;28;20020;-69
2022/05/24 05:58:25;;;;;;;14.30;7.85;;;;;;;12.76;100.00;100141.41;5087055;28;20044;-70
2022/05/24 06:00:52;;;;;;;12.98;7.32;;;;;;;12.81;100.00;100145.78;5086787;28;20031;-69
2022/05/24 06:03:18;;;;;;;16.52;7.15;;;;;;;12.79;100.00;100144.91;5088652;28;20059;-69
2022/05/24 06:05:45;;;;;;;19.73;7.75;;;;;;;12.87;100.00;100151.91;5096584;28;20023;-70
2022/05/24 06:08:11;;;;;;;14.23;7.78;;;;;;;12.85;100.00;100151.94;5102164;28;20103;-70
2022/05/24 06:10:37;;;;;;;9.43;6.50;;;;;;;12.72;100.00;100158.13;5092599;28;20147;-69
2022/05/24 06:13:03;;;;;;;14.80;7.45;;;;;;;12.46;100.00;100165.22;5095214;28;20031;-70
2022/05/24 06:15:30;;;;;;;12.80;7.65;;;;;;;12.25;100.00;100163.53;5097188;28;20028;-71
2022/05/24 06:17:56;;;;;;;17.10;7.72;;;;;;;12.26;100.00;100169.66;5097190;28;20024;-70
2022/05/24 06:20:24;;;;;;;15.95;8.13;;;;;;;12.16;100.00;100173.22;5094296;28;20146;-72
2022/05/24 06:22:52;;;;;;;27.90;9.52;;;;;;;12.11;100.00;100184.66;5091098;28;20028;-71
2022/05/24 06:25:18;;;;;;;15.80;8.70;;;;;;;12.01;100.00;100176.72;5089634;28;20028;-70
2022/05/24 06:27:43;;;;;;;18.48;8.30;;;;;;;12.04;100.00;100188.13;5086595;28;20026;-70
2022/05/24 06:30:09;;;;;;;18.42;8.52;;;;;;;11.95;100.00;100188.13;5087690;28;20059;-70
2022/05/24 06:32:34;;;;;;;11.05;8.60;;;;;;;11.75;100.00;100196.88;5086236;28;20032;-70
2022/05/24 06:34:59;;;;;;;18.05;9.75;;;;;;;11.65;100.00;100200.38;5089770;28;20020;-70
2022/05/24 06:37:25;;;;;;;15.95;9.88;;;;;;;11.64;100.00;100198.63;5087865;28;20042;-70
2022/05/24 06:39:50;;;;;;;25.00;9.27;;;;;;;11.56;100.00;100205.66;5087884;28;20030;-68
2022/05/24 06:42:16;;;;;;;21.92;9.48;;;;;;;11.39;100.00;100203.81;5100906;28;20107;-70
2022/05/24 06:44:41;;;;;;;17.67;8.98;;;;;;;11.36;100.00;100209.09;5101559;28;20351;-70
2022/05/24 06:47:07;;;;;;;18.67;8.88;;;;;;;11.44;100.00;100210.00;5094740;28;20078;-69
2022/05/24 06:49:33;;;;;;;19.38;9.65;;;;;;;11.44;100.00;100207.34;5096192;28;20031;-69
2022/05/24 06:51:59;;;;;;;11.13;7.40;;;;;;;11.42;100.00;100217.03;5092911;28;20122;-69
2022/05/24 06:54:24;;;;;;;15.85;7.38;;;;;;;11.36;100.00;100210.88;5097967;28;20371;-68
2022/05/24 06:56:50;;;;;;;15.75;8.25;;;;;;;11.43;100.00;100224.03;5115705;28;20068;-69
2022/05/24 07:04:43;;;;;;;11.60;5.13;;;;;;;11.37;100.00;100221.41;5093736;28;19935;-69
2022/05/24 07:07:08;;;;;;;13.48;5.07;;;;;;;11.31;100.00;100208.19;5097003;28;20039;-68
2022/05/24 07:09:34;;;;;;;7.50;5.30;;;;;;;11.40;100.00;100226.66;5098730;28;20515;-70
2022/05/24 07:12:00;;;;;;;13.40;5.45;;;;;;;11.35;100.00;100232.81;5094405;28;20032;-70
2022/05/24 07:14:26;;;;;;;10.48;5.65;;;;;;;11.46;100.00;100237.25;5094315;28;20055;-70
2022/05/24 07:16:52;;;;;;;10.90;5.35;;;;;;;11.46;100.00;100233.69;5095891;28;20032;-70
2022/05/24 07:19:18;;;;;;;12.73;6.10;;;;;;;11.58;100.00;100240.78;5094803;28;20051;-69
2022/05/24 07:21:46;;;;;;;10.77;5.63;;;;;;;11.68;100.00;100246.94;5095911;28;20044;-70
2022/05/24 07:24:12;;;;;;;15.18;7.82;;;;;;;11.71;100.00;100245.19;5093159;28;20020;-71
2022/05/24 07:26:37;;;;;;;9.85;4.80;;;;;;;11.60;100.00;100257.47;5099808;28;20077;-71
2022/05/24 07:29:03;;;;;;;8.13;4.75;;;;;;;11.54;100.00;100253.03;5100294;28;20030;-69
2022/05/24 07:31:29;;;;;;;8.50;4.35;;;;;;;11.43;100.00;100252.16;5095292;28;20036;-70
2022/05/24 07:33:54;;;;;;;12.80;4.10;;;;;;;11.53;100.00;100255.69;5096615;28;20107;-70
2022/05/24 07:36:20;;;;;;;7.30;3.28;;;;;;;11.46;100.00;100253.03;5098982;28;20030;-70
2022/05/24 07:38:46;;;;;;;9.80;3.25;;;;;;;11.42;100.00;100267.09;5096184;28;20480;-70
2022/05/24 07:46:39;;;;;;;4.93;2.58;;;;;;;11.27;100.00;100277.53;5096929;28;20018;-69
2022/05/24 07:49:05;;;;;;;6.00;2.72;;;;;;;11.28;100.00;100276.66;5091886;28;20107;-70
2022/05/24 07:51:30;;;;;;;6.85;2.78;;;;;;;11.25;100.00;100276.66;5110530;28;20114;-70
2022/05/24 07:53:55;;;;;;;6.15;3.63;;;;;;;11.43;100.00;100279.34;5114914;28;20079;-70
2022/05/24 07:56:21;;;;;;;8.50;3.05;;;;;;;11.51;100.00;100279.41;5101443;28;20447;-70
2022/05/24 07:58:47;;;;;;;6.85;2.95;;;;;;;11.72;100.00;100290.88;5092699;28;20055;-70
2022/05/24 08:01:15;;;;;;;4.97;3.03;;;;;;;11.90;100.00;100288.28;5107603;28;20479;-70
2022/05/24 08:03:41;;;;;;;6.63;3.03;;;;;;;12.10;100.00;100287.47;5114550;28;20102;-70
2022/05/24 08:06:07;;;;;;;5.65;2.75;;;;;;;12.14;100.00;100282.22;5104423;27;20106;-70
2022/05/24 08:08:33;;;;;;;8.13;2.35;;;;;;;12.34;100.00;100286.63;5096656;28;20437;-70
2022/05/24 08:10:59;;;;;;;7.40;2.55;;;;;;;12.36;100.00;100303.34;5094126;28;20020;-71
2022/05/24 08:13:24;;;;;;;8.90;2.90;;;;;;;12.44;100.00;100298.94;5090151;28;20028;-70
2022/05/24 08:15:51;;;;;;;3.05;1.83;;;;;;;12.24;100.00;100312.13;5103822;28;20095;-70
2022/05/24 08:18:16;;;;;;;6.30;2.30;;;;;;;12.13;100.00;100314.75;5093973;28;20480;-71
2022/05/24 08:20:42;;;;;;;2.80;1.50;;;;;;;11.89;100.00;100314.66;5096669;28;20110;-70
2022/05/24 08:23:07;;;;;;;3.75;2.03;;;;;;;11.77;100.00;100316.41;5090953;28;20060;-69
2022/05/24 08:25:33;;;;;;;4.47;2.00;;;;;;;11.75;100.00;100322.53;5109900;28;20361;-70
2022/05/24 08:28:02;;;;;;;5.47;1.75;;;;;;;11.71;100.00;100331.31;5099043;28;20368;-70
2022/05/24 08:30:28;;;;;;;10.25;2.03;;;;;;;11.59;100.00;100332.13;5093468;28;20036;-70
2022/05/24 08:32:56;;;;;;;6.25;2.22;;;;;;;11.62;100.00;100333.03;5101981;28;20048;-71
2022/05/24 08:35:22;;;;;;;3.53;2.53;;;;;;;11.56;100.00;100334.75;5094512;28;20020;-71
2022/05/24 08:37:48;;;;;;;12.98;2.72;;;;;;;11.58;100.00;100347.03;5093416;28;20024;-70
2022/05/24 08:40:17;;;;;;;3.55;3.22;;;;;;;11.70;100.00;100348.84;5093152;28;20383;-72
2022/05/24 08:43:01;;;;;;;7.95;3.90;;;;;;;11.86;100.00;100347.16;5092242;28;20075;-71
2022/05/24 08:48:28;;;;;;;12.45;4.28;;;;;;;12.30;100.00;100356.09;5106820;28;20050;-70
2022/05/24 08:51:07;;;;;;;7.00;4.45;;;;;;;12.55;100.00;100353.50;5090098;28;20416;-70
2022/05/24 08:53:47;;;;;;;11.88;3.78;;;;;;;12.55;100.00;100358.78;5097854;28;20057;-71
2022/05/24 08:56:17;;;;;;;6.05;3.83;;;;;;;12.40;100.00;100368.44;5113408;28;20030;-71
2022/05/24 08:58:48;;;;;;;7.55;3.05;;;;;;;12.30;100.00;100379.81;5107092;28;20023;-71
2022/05/24 09:01:35;;;;;;;7.53;2.60;;;;;;;12.26;100.00;100378.97;5097906;28;20363;-71
2022/05/24 09:04:04;;;;;;;4.55;2.40;;;;;;;12.32;100.00;100388.66;5089229;28;20054;-71
2022/05/24 09:06:38;;;;;;;6.57;2.47;;;;;;;12.33;100.00;100393.06;5111859;28;20486;-71
2022/05/24 09:09:06;;;;;;;7.63;2.13;;;;;;;12.32;100.00;100392.16;5113456;28;20024;-70
2022/05/24 09:11:50;;;;;;;11.98;2.20;;;;;;;12.42;100.00;100398.31;5102772;28;20027;-70
2022/05/24 09:14:45;;;;;;;8.70;2.10;;;;;;;12.38;100.00;100407.09;5099955;28;20039;-70
2022/05/24 09:17:23;;;;;;;4.97;2.15;;;;;;;12.52;100.00;100411.53;5092667;28;20044;-70
2022/05/24 09:19:48;;;;;;;9.05;3.13;;;;;;;12.67;100.00;100406.28;5099914;28;20076;-70
2022/05/24 09:22:14;;;;;;;6.28;2.63;;;;;;;12.74;100.00;100404.53;5107380;28;20035;-70
2022/05/24 09:24:50;;;;;;;5.75;2.67;;;;;;;12.73;100.00;100414.19;5102556;28;20057;-70
2022/05/24 09:27:53;;;;;;;6.68;3.10;;;;;;;12.65;100.00;100426.50;5117470;27;20034;-70
2022/05/24 09:30:36;;;;;;;9.73;3.07;;;;;;;12.57;100.00;100425.63;5097634;28;20024;-70
2022/05/24 09:33:25;;;;;;;7.40;3.53;;;;;;;12.36;100.00;100437.91;5096264;28;20016;-71
2022/05/24 09:35:58;;;;;;;10.88;4.63;;;;;;;12.14;100.00;100443.09;5104467;28;20494;-73
2022/05/24 09:38:32;;;;;;;12.30;4.68;;;;;;;11.94;100.00;100443.03;5111165;28;20024;-73
2022/05/24 09:41:02;;;;;;;15.70;5.32;;;;;;;11.78;100.00;100455.22;5098877;28;20367;-73
2022/05/24 09:43:36;;;;;;;10.82;5.47;;;;;;;11.71;100.00;100448.16;5096489;28;20031;-73
2022/05/24 09:46:24;;;;;;;14.60;5.93;;;;;;;11.76;100.00;100459.59;5093883;28;20522;-73
2022/05/24 09:48:59;;;;;;;12.63;7.10;;;;;;;11.85;100.00;100473.72;5083072;28;20055;-72
2022/05/24 09:51:32;;;;;;;13.88;6.90;;;;;;;11.86;100.00;100467.56;5095098;28;20020;-72
2022/05/24 09:53:57;;;;;;;16.02;6.78;;;;;;;11.94;100.00;100466.75;5096382;28;20020;-73
2022/05/24 09:56:30;;;;;;;10.20;5.07;;;;;;;11.96;100.00;100474.66;5113252;28;20054;-73
2022/05/24 09:59:02;;;;;;;10.77;4.82;;;;;;;12.06;100.00;100476.47;5116943;28;20027;-72
2022/05/24 10:01:49;;;;;;;13.90;4.90;;;;;;;12.19;100.00;100481.81;5100677;28;20055;-73
2022/05/24 10:04:37;;;;;;;7.60;4.15;;;;;;;12.29;100.00;100486.25;5096979;28;20144;-73
2022/05/24 10:07:08;;;;;;;7.47;4.40;;;;;;;12.46;100.00;100487.16;5115231;28;20026;-73
2022/05/24 10:10:02;;;;;;;11.88;4.90;;;;;;;12.60;100.00;100488.97;5113677;28;20035;-73
2022/05/24 10:12:55;;;;;;;6.93;4.53;;;;;;;12.73;100.00;100485.47;5090103;28;20396;-70
2022/05/24 10:15:37;;;;;;;11.77;5.88;;;;;;;12.82;100.00;100489.91;5095979;28;20062;-73
2022/05/24 10:18:05;;;;;;;5.32;3.58;;;;;;;12.95;100.00;100506.63;5089561;28;20044;-71
2022/05/24 10:20:42;;;;;;;8.75;2.88;;;;;;;13.07;100.00;100501.38;5103480;28;20024;-71
2022/05/24 10:23:41;;;;;;;14.85;3.45;;;;;;;13.18;100.00;100508.44;5099889;28;20475;-70
2022/05/24 10:26:31;;;;;;;5.47;2.50;;;;;;;13.27;100.00;100500.50;5099820;28;20122;-71
2022/05/24 10:29:15;;;;;;;5.38;2.60;;;;;;;13.22;100.00;100511.06;5092869;28;20152;-71
2022/05/24 10:31:55;;;;;;;8.48;2.65;;;;;;;13.37;100.00;100515.50;5109682;28;20475;-71
2022/05/24 10:38:21;;;;;;;6.63;2.08;;;;;;;13.77;100.00;100519.88;5083092;28;20506;-71
2022/05/24 10:41:05;;;;;;;4.85;1.52;;;;;;;13.71;100.00;100526.03;5095452;28;20403;-72
2022/05/24 10:43:36;;;;;;;;;;;;;;;13.64;100.00;100527.81;5095689;28;20089;-72
2022/05/24 10:46:15;;;;;;;2.28;1.35;;;;;;;13.66;100.00;100520.78;5097125;28;20339;-71
2022/05/24 10:48:50;;;;;;;7.80;1.70;;;;;;;13.96;100.00;100526.00;5099527;28;20100;-71
2022/05/24 10:51:40;;;;;;;3.53;1.65;;;;;;;14.42;100.00;100528.50;5115744;28;20024;-72
2022/05/24 10:54:21;;;;;;;3.85;1.20;;;;;;;14.95;100.00;100528.25;5115982;28;20427;-71
2022/05/24 10:56:54;;;;;;;1.55;1.00;;;;;;;15.04;100.00;100527.28;5107944;28;20104;-71
2022/05/24 10:59:38;;;;;;;4.22;1.50;;;;;;;14.57;100.00;100526.66;5094929;28;20027;-73
2022/05/24 11:02:29;;;;;;;3.50;1.25;;;;;;;14.46;100.00;100522.31;5103635;28;20070;-72
2022/05/24 11:05:06;;;;;;;4.97;1.15;;;;;;;14.71;100.00;100537.22;5092422;28;20153;-71
2022/05/24 11:07:34;;;;;;;6.45;1.60;;;;;;;15.03;100.00;100528.19;5093584;28;20467;-71
2022/05/24 11:10:09;;;;;;;6.97;1.20;;;;;;;15.20;100.00;100531.59;5094545;28;20034;-71
2022/05/24 11:12:48;;;;;;;2.90;0.98;;;;;;;15.14;100.00;100535.16;5098960;28;20160;-72
2022/05/24 11:15:18;;;;;;;4.45;1.35;;;;;;;15.32;100.00;100523.53;5093737;28;20052;-71
2022/05/24 11:17:44;;;;;;;3.92;1.33;;;;;;;15.46;100.00;100528.75;5102183;28;20046;-71
2022/05/24 11:20:11;;;;;;;3.15;1.40;;;;;;;15.68;100.00;100528.53;5103000;28;20035;-71
2022/05/24 11:22:42;;;;;;;3.67;1.33;;;;;;;15.75;100.00;100535.53;5107771;28;20031;-70
2022/05/24 11:25:25;;;;;;;4.93;1.20;;;;;;;15.42;99.87;100531.41;5102338;28;20028;-70
2022/05/24 11:28:04;;;;;;;4.03;1.70;;;;;;;15.43;100.00;100535.84;5081589;28;20048;-70
2022/05/24 11:30:38;;;;;;;3.00;1.00;;;;;;;15.16;98.41;100546.63;5093248;28;20035;-71
2022/05/24 11:33:05;;;;;;;6.28;1.60;;;;;;;15.31;99.89;100542.09;5113870;28;20028;-70
2022/05/24 11:35:52;;;;;;;4.20;1.20;;;;;;;15.46;100.00;100547.31;5114759;28;20035;-70
2022/05/24 11:38:23;;;;;;;5.00;1.42;;;;;;;15.88;100.00;100557.53;5092395;28;20031;-70
2022/05/24 11:40:54;;;;;;;6.10;1.30;;;;;;;15.95;100.00;100564.56;5114591;28;20158;-71
2022/05/24 11:43:43;;;;;;;4.25;1.50;;;;;;;15.40;97.56;100565.03;5105988;28;20024;-71
2022/05/24 11:46:08;;;;;;;1.63;1.17;;;;;;;14.95;97.40;100563.56;5091634;28;20043;-70
2022/05/24 11:48:50;;;;;;;3.78;1.13;;;;;;;15.00;95.38;100560.88;5097865;28;20499;-71
2022/05/24 11:51:34;;;;;;;7.13;1.45;;;;;;;15.11;94.79;100569.66;5099641;28;20024;-70
2022/05/24 11:54:02;;;;;;;2.42;1.00;;;;;;;15.28;96.49;100572.16;5097758;28;20148;-71
2022/05/24 11:56:29;;;;;;;4.35;1.10;;;;;;;15.58;91.74;100569.31;5102664;28;20499;-71
2022/05/24 11:58:58;;;;;;;1.40;1.05;;;;;;;15.58;92.30;100574.59;5092718;28;20031;-71